Hlavní strana
METAR-TAF:

METAR-TAF

Letiště :

Aktau, Kazachstán

zeměpisná šířka: 43-52-12N, zeměpisná délka: 051-06E, výška: 22 m

Aktuální stav počasí

Zpráva byla vytvořena před 25 minutami, v 04:00 UTC
Východoseverovýchodní vítr 6 kt
Teplota -5°C
Vlhkost vzduchu 86%
Tlak 1034 hPa
Viditelnost 10 km a více
Žádná oblačnost pod 1500 m, nevyskytují se cumulonimby.

METAR: UATE 180400Z 06003MPS CAVOK M05/M07 Q1034 R30/0///70 NOSIG RMK QFE774/1032

Čas: 09:25 (04:25 UTC)

Předpověď počasí

Zpráva byla vytvořena před 5 hodinami a 23 minutami, v 23:02 UTC
Předpověď platná od 18 v 00 UTC do 18 v 24 UTC
Východní vítr 14 kt
Viditelnost 10 km a více
Polojasno ve výšce 1500 ft

TAF: UATE 172302Z 1800/1824 09007MPS 9999 SCT015 TX08/1809Z TNM07/1802Z

Stav a předpovědi počasí z více než 4 000 letišť (zprávy METAR a TAF).

Červené a žluté tečky na mapě představují dostupné meteorologické stanice.

Když kurzor umístíte na tečku, zobrazí se název stanice.

Pak kliknutím zobrazíte stav a předpověď počasí.

Chcete-li změnit mapu, kliknutím na zelené tlačítko se znaménkem +mapu přiblížíte, kliknutím na zelené tlačítko se znaménkem – mapu oddálíte a kliknutím na zelené šipky přejdete na sousední mapy.


METAR-TAF: